sensor_id;sensor_type;location;lat;lon;timestamp;temperature;humidity
38788;DHT22;24536;45.488;12.238;2023-12-14T00:01:21;9.80;99.90
38788;DHT22;24536;45.488;12.238;2023-12-14T00:03:47;9.80;99.90
38788;DHT22;24536;45.488;12.238;2023-12-14T00:06:12;9.70;99.90
38788;DHT22;24536;45.488;12.238;2023-12-14T00:08:39;9.70;99.90
38788;DHT22;24536;45.488;12.238;2023-12-14T00:11:07;9.70;99.90
38788;DHT22;24536;45.488;12.238;2023-12-14T00:13:33;9.60;99.90
38788;DHT22;24536;45.488;12.238;2023-12-14T00:15:59;9.70;99.90
38788;DHT22;24536;45.488;12.238;2023-12-14T00:18:25;9.60;99.90
38788;DHT22;24536;45.488;12.238;2023-12-14T00:20:50;9.60;99.90
38788;DHT22;24536;45.488;12.238;2023-12-14T00:23:16;9.60;99.90
38788;DHT22;24536;45.488;12.238;2023-12-14T00:25:42;9.60;99.90
38788;DHT22;24536;45.488;12.238;2023-12-14T00:28:08;9.60;99.90
38788;DHT22;24536;45.488;12.238;2023-12-14T00:30:33;9.50;99.90
38788;DHT22;24536;45.488;12.238;2023-12-14T00:32:59;9.50;99.90
38788;DHT22;24536;45.488;12.238;2023-12-14T00:35:24;9.50;99.90
38788;DHT22;24536;45.488;12.238;2023-12-14T00:37:50;9.50;99.90
38788;DHT22;24536;45.488;12.238;2023-12-14T00:40:15;9.40;99.90
38788;DHT22;24536;45.488;12.238;2023-12-14T00:42:41;9.50;99.90
38788;DHT22;24536;45.488;12.238;2023-12-14T00:45:06;9.40;99.90
38788;DHT22;24536;45.488;12.238;2023-12-14T00:47:32;9.40;99.90
38788;DHT22;24536;45.488;12.238;2023-12-14T00:49:58;9.40;99.90
38788;DHT22;24536;45.488;12.238;2023-12-14T00:52:23;9.40;99.90
38788;DHT22;24536;45.488;12.238;2023-12-14T00:54:49;9.30;99.90
38788;DHT22;24536;45.488;12.238;2023-12-14T00:57:14;9.30;99.90
38788;DHT22;24536;45.488;12.238;2023-12-14T00:59:40;9.20;99.90
38788;DHT22;24536;45.488;12.238;2023-12-14T01:02:05;9.20;99.90
38788;DHT22;24536;45.488;12.238;2023-12-14T01:04:31;9.10;99.90
38788;DHT22;24536;45.488;12.238;2023-12-14T01:06:57;9.10;99.90
38788;DHT22;24536;45.488;12.238;2023-12-14T01:09:22;9.10;99.90
38788;DHT22;24536;45.488;12.238;2023-12-14T01:11:48;9.10;99.90
38788;DHT22;24536;45.488;12.238;2023-12-14T01:14:13;9.10;99.90
38788;DHT22;24536;45.488;12.238;2023-12-14T01:16:39;9.10;99.90
38788;DHT22;24536;45.488;12.238;2023-12-14T01:19:04;9.00;99.90
38788;DHT22;24536;45.488;12.238;2023-12-14T01:21:31;9.00;99.90
38788;DHT22;24536;45.488;12.238;2023-12-14T01:23:57;9.00;99.90
38788;DHT22;24536;45.488;12.238;2023-12-14T01:26:22;9.00;99.90
38788;DHT22;24536;45.488;12.238;2023-12-14T01:28:48;9.00;99.90
38788;DHT22;24536;45.488;12.238;2023-12-14T01:31:13;9.00;99.90
38788;DHT22;24536;45.488;12.238;2023-12-14T01:33:39;9.00;99.90
38788;DHT22;24536;45.488;12.238;2023-12-14T01:36:04;9.00;99.90
38788;DHT22;24536;45.488;12.238;2023-12-14T01:38:30;9.10;99.90
38788;DHT22;24536;45.488;12.238;2023-12-14T01:40:56;9.10;99.90
38788;DHT22;24536;45.488;12.238;2023-12-14T01:43:21;9.10;99.90
38788;DHT22;24536;45.488;12.238;2023-12-14T01:45:47;9.10;99.90
38788;DHT22;24536;45.488;12.238;2023-12-14T01:48:12;9.00;99.90
38788;DHT22;24536;45.488;12.238;2023-12-14T01:50:38;9.10;99.90
38788;DHT22;24536;45.488;12.238;2023-12-14T01:53:03;9.10;99.90
38788;DHT22;24536;45.488;12.238;2023-12-14T01:55:29;9.10;99.90
38788;DHT22;24536;45.488;12.238;2023-12-14T01:57:55;9.10;99.90
38788;DHT22;24536;45.488;12.238;2023-12-14T02:00:27;9.00;99.90
38788;DHT22;24536;45.488;12.238;2023-12-14T02:02:53;9.00;99.90
38788;DHT22;24536;45.488;12.238;2023-12-14T02:05:19;9.00;99.90
38788;DHT22;24536;45.488;12.238;2023-12-14T02:07:45;9.00;99.90
38788;DHT22;24536;45.488;12.238;2023-12-14T02:10:10;9.00;99.90
38788;DHT22;24536;45.488;12.238;2023-12-14T02:12:36;9.00;99.90
38788;DHT22;24536;45.488;12.238;2023-12-14T02:15:01;9.00;99.90
38788;DHT22;24536;45.488;12.238;2023-12-14T02:17:27;9.00;99.90
38788;DHT22;24536;45.488;12.238;2023-12-14T02:19:52;9.00;99.90
38788;DHT22;24536;45.488;12.238;2023-12-14T02:22:18;9.00;99.90
38788;DHT22;24536;45.488;12.238;2023-12-14T02:24:44;9.00;99.90
38788;DHT22;24536;45.488;12.238;2023-12-14T02:27:09;9.00;99.90
38788;DHT22;24536;45.488;12.238;2023-12-14T02:29:35;9.00;99.90
38788;DHT22;24536;45.488;12.238;2023-12-14T02:32:01;8.90;99.90
38788;DHT22;24536;45.488;12.238;2023-12-14T02:34:26;9.00;99.90
38788;DHT22;24536;45.488;12.238;2023-12-14T02:36:52;9.00;99.90
38788;DHT22;24536;45.488;12.238;2023-12-14T02:39:17;8.90;99.90
38788;DHT22;24536;45.488;12.238;2023-12-14T02:41:43;8.90;99.90
38788;DHT22;24536;45.488;12.238;2023-12-14T02:44:08;8.90;99.90
38788;DHT22;24536;45.488;12.238;2023-12-14T02:46:34;8.90;99.90
38788;DHT22;24536;45.488;12.238;2023-12-14T02:49:00;8.90;99.90
38788;DHT22;24536;45.488;12.238;2023-12-14T02:51:25;8.90;99.90
38788;DHT22;24536;45.488;12.238;2023-12-14T02:53:51;8.80;99.90
38788;DHT22;24536;45.488;12.238;2023-12-14T02:56:16;8.80;99.90
38788;DHT22;24536;45.488;12.238;2023-12-14T02:58:42;8.80;99.90
38788;DHT22;24536;45.488;12.238;2023-12-14T03:01:08;8.80;99.90
38788;DHT22;24536;45.488;12.238;2023-12-14T03:03:33;8.80;99.90
38788;DHT22;24536;45.488;12.238;2023-12-14T03:05:59;8.80;99.90
38788;DHT22;24536;45.488;12.238;2023-12-14T03:08:24;8.80;99.90
38788;DHT22;24536;45.488;12.238;2023-12-14T03:10:50;8.70;99.90
38788;DHT22;24536;45.488;12.238;2023-12-14T03:13:15;8.70;99.90
38788;DHT22;24536;45.488;12.238;2023-12-14T03:15:42;8.70;99.90
38788;DHT22;24536;45.488;12.238;2023-12-14T03:18:08;8.70;99.90
38788;DHT22;24536;45.488;12.238;2023-12-14T03:20:34;8.60;99.90
38788;DHT22;24536;45.488;12.238;2023-12-14T03:22:59;8.60;99.90
38788;DHT22;24536;45.488;12.238;2023-12-14T03:25:25;8.50;99.90
38788;DHT22;24536;45.488;12.238;2023-12-14T03:27:50;8.50;99.90
38788;DHT22;24536;45.488;12.238;2023-12-14T03:30:16;8.50;99.90
38788;DHT22;24536;45.488;12.238;2023-12-14T03:32:41;8.50;99.90
38788;DHT22;24536;45.488;12.238;2023-12-14T03:35:07;8.50;99.90
38788;DHT22;24536;45.488;12.238;2023-12-14T03:37:33;8.50;99.90
38788;DHT22;24536;45.488;12.238;2023-12-14T03:39:59;8.50;99.90
38788;DHT22;24536;45.488;12.238;2023-12-14T03:42:24;8.40;99.90
38788;DHT22;24536;45.488;12.238;2023-12-14T03:44:50;8.40;99.90
38788;DHT22;24536;45.488;12.238;2023-12-14T03:47:15;8.40;99.90
38788;DHT22;24536;45.488;12.238;2023-12-14T03:49:41;8.30;99.90
38788;DHT22;24536;45.488;12.238;2023-12-14T03:52:08;8.30;99.90
38788;DHT22;24536;45.488;12.238;2023-12-14T03:54:33;8.30;99.90
38788;DHT22;24536;45.488;12.238;2023-12-14T03:56:59;8.30;99.90
38788;DHT22;24536;45.488;12.238;2023-12-14T03:59:25;8.30;99.90
38788;DHT22;24536;45.488;12.238;2023-12-14T04:01:50;8.30;99.90
38788;DHT22;24536;45.488;12.238;2023-12-14T04:04:16;8.30;99.90
38788;DHT22;24536;45.488;12.238;2023-12-14T04:06:41;8.40;99.90
38788;DHT22;24536;45.488;12.238;2023-12-14T04:09:07;8.30;99.90
38788;DHT22;24536;45.488;12.238;2023-12-14T04:11:32;8.30;99.90
38788;DHT22;24536;45.488;12.238;2023-12-14T04:13:58;8.30;99.90
38788;DHT22;24536;45.488;12.238;2023-12-14T04:16:23;8.30;99.90
38788;DHT22;24536;45.488;12.238;2023-12-14T04:18:49;8.30;99.90
38788;DHT22;24536;45.488;12.238;2023-12-14T04:21:15;8.20;99.90
38788;DHT22;24536;45.488;12.238;2023-12-14T04:23:40;8.10;99.90
38788;DHT22;24536;45.488;12.238;2023-12-14T04:26:06;8.10;99.90
38788;DHT22;24536;45.488;12.238;2023-12-14T04:28:32;8.00;99.90
38788;DHT22;24536;45.488;12.238;2023-12-14T04:30:58;8.00;99.90
38788;DHT22;24536;45.488;12.238;2023-12-14T04:33:24;8.00;99.90
38788;DHT22;24536;45.488;12.238;2023-12-14T04:35:49;8.00;99.90
38788;DHT22;24536;45.488;12.238;2023-12-14T04:38:15;8.00;99.90
38788;DHT22;24536;45.488;12.238;2023-12-14T04:40:40;8.00;99.90
38788;DHT22;24536;45.488;12.238;2023-12-14T04:43:06;8.00;99.90
38788;DHT22;24536;45.488;12.238;2023-12-14T04:45:31;8.00;99.90
38788;DHT22;24536;45.488;12.238;2023-12-14T04:47:57;8.00;99.90
38788;DHT22;24536;45.488;12.238;2023-12-14T04:50:22;8.10;99.90
38788;DHT22;24536;45.488;12.238;2023-12-14T04:52:48;8.10;99.90
38788;DHT22;24536;45.488;12.238;2023-12-14T04:55:13;8.10;99.90
38788;DHT22;24536;45.488;12.238;2023-12-14T04:57:39;8.10;99.90
38788;DHT22;24536;45.488;12.238;2023-12-14T05:00:05;8.10;99.90
38788;DHT22;24536;45.488;12.238;2023-12-14T05:02:31;8.00;99.90
38788;DHT22;24536;45.488;12.238;2023-12-14T05:04:57;8.00;99.90
38788;DHT22;24536;45.488;12.238;2023-12-14T05:07:23;8.00;99.90
38788;DHT22;24536;45.488;12.238;2023-12-14T05:09:49;8.00;99.90
38788;DHT22;24536;45.488;12.238;2023-12-14T05:12:14;8.00;99.90
38788;DHT22;24536;45.488;12.238;2023-12-14T05:14:40;7.90;99.90
38788;DHT22;24536;45.488;12.238;2023-12-14T05:17:05;7.90;99.90
38788;DHT22;24536;45.488;12.238;2023-12-14T05:19:34;7.90;99.90
38788;DHT22;24536;45.488;12.238;2023-12-14T05:22:00;7.90;99.90
38788;DHT22;24536;45.488;12.238;2023-12-14T05:24:25;7.90;99.90
38788;DHT22;24536;45.488;12.238;2023-12-14T05:26:51;7.90;99.90
38788;DHT22;24536;45.488;12.238;2023-12-14T05:29:16;7.90;99.90
38788;DHT22;24536;45.488;12.238;2023-12-14T05:31:42;7.80;99.90
38788;DHT22;24536;45.488;12.238;2023-12-14T05:34:08;7.80;99.90
38788;DHT22;24536;45.488;12.238;2023-12-14T05:36:33;7.80;99.90
38788;DHT22;24536;45.488;12.238;2023-12-14T05:38:59;7.70;99.90
38788;DHT22;24536;45.488;12.238;2023-12-14T05:41:24;7.70;99.90
38788;DHT22;24536;45.488;12.238;2023-12-14T05:43:50;7.70;99.90
38788;DHT22;24536;45.488;12.238;2023-12-14T05:46:22;7.70;99.90
38788;DHT22;24536;45.488;12.238;2023-12-14T05:48:49;7.60;99.90
38788;DHT22;24536;45.488;12.238;2023-12-14T05:51:25;7.60;99.90
38788;DHT22;24536;45.488;12.238;2023-12-14T05:53:51;7.60;99.90
38788;DHT22;24536;45.488;12.238;2023-12-14T05:56:16;7.60;99.90
38788;DHT22;24536;45.488;12.238;2023-12-14T05:58:43;7.50;99.90
38788;DHT22;24536;45.488;12.238;2023-12-14T06:01:08;7.60;99.90
38788;DHT22;24536;45.488;12.238;2023-12-14T06:03:34;7.60;99.90
38788;DHT22;24536;45.488;12.238;2023-12-14T06:05:59;7.60;99.90
38788;DHT22;24536;45.488;12.238;2023-12-14T06:08:26;7.60;99.90
38788;DHT22;24536;45.488;12.238;2023-12-14T06:10:54;7.60;99.90
38788;DHT22;24536;45.488;12.238;2023-12-14T06:13:19;7.60;99.90
38788;DHT22;24536;45.488;12.238;2023-12-14T06:15:46;7.60;99.90
38788;DHT22;24536;45.488;12.238;2023-12-14T06:18:12;7.60;99.90
38788;DHT22;24536;45.488;12.238;2023-12-14T06:20:39;7.50;99.90
38788;DHT22;24536;45.488;12.238;2023-12-14T06:23:06;7.50;99.90
38788;DHT22;24536;45.488;12.238;2023-12-14T06:25:31;7.50;99.90
38788;DHT22;24536;45.488;12.238;2023-12-14T06:27:57;7.40;99.90
38788;DHT22;24536;45.488;12.238;2023-12-14T06:30:22;7.40;99.90
38788;DHT22;24536;45.488;12.238;2023-12-14T06:32:49;7.40;99.90
38788;DHT22;24536;45.488;12.238;2023-12-14T06:35:14;7.30;99.90
38788;DHT22;24536;45.488;12.238;2023-12-14T06:37:40;7.30;99.90
38788;DHT22;24536;45.488;12.238;2023-12-14T06:40:07;7.20;99.90
38788;DHT22;24536;45.488;12.238;2023-12-14T06:42:33;7.20;99.90
38788;DHT22;24536;45.488;12.238;2023-12-14T06:45:00;7.20;99.90
38788;DHT22;24536;45.488;12.238;2023-12-14T06:47:25;7.20;99.90
38788;DHT22;24536;45.488;12.238;2023-12-14T06:49:51;7.20;99.90
38788;DHT22;24536;45.488;12.238;2023-12-14T06:52:16;7.30;99.90
38788;DHT22;24536;45.488;12.238;2023-12-14T06:54:42;7.30;99.90
38788;DHT22;24536;45.488;12.238;2023-12-14T06:57:07;7.40;99.90
38788;DHT22;24536;45.488;12.238;2023-12-14T06:59:33;7.40;99.90
38788;DHT22;24536;45.488;12.238;2023-12-14T07:01:58;7.40;99.90
38788;DHT22;24536;45.488;12.238;2023-12-14T07:04:24;7.30;99.90
38788;DHT22;24536;45.488;12.238;2023-12-14T07:06:50;7.40;99.90
38788;DHT22;24536;45.488;12.238;2023-12-14T07:09:16;7.30;99.90
38788;DHT22;24536;45.488;12.238;2023-12-14T07:11:42;7.30;99.90
38788;DHT22;24536;45.488;12.238;2023-12-14T07:14:07;7.30;99.90
38788;DHT22;24536;45.488;12.238;2023-12-14T07:16:33;7.30;99.90
38788;DHT22;24536;45.488;12.238;2023-12-14T07:18:58;7.30;99.90
38788;DHT22;24536;45.488;12.238;2023-12-14T07:21:24;7.30;99.90
38788;DHT22;24536;45.488;12.238;2023-12-14T07:23:49;7.30;99.90
38788;DHT22;24536;45.488;12.238;2023-12-14T07:26:15;7.40;99.90
38788;DHT22;24536;45.488;12.238;2023-12-14T07:28:41;7.40;99.90
38788;DHT22;24536;45.488;12.238;2023-12-14T07:31:06;7.40;99.90
38788;DHT22;24536;45.488;12.238;2023-12-14T07:33:32;7.40;99.90
38788;DHT22;24536;45.488;12.238;2023-12-14T07:35:57;7.40;99.90
38788;DHT22;24536;45.488;12.238;2023-12-14T07:38:23;7.40;99.90
38788;DHT22;24536;45.488;12.238;2023-12-14T07:40:48;7.50;99.90
38788;DHT22;24536;45.488;12.238;2023-12-14T07:43:15;7.40;99.90
38788;DHT22;24536;45.488;12.238;2023-12-14T07:45:41;7.40;99.90
38788;DHT22;24536;45.488;12.238;2023-12-14T07:48:06;7.40;99.90
38788;DHT22;24536;45.488;12.238;2023-12-14T07:50:32;7.50;99.90
38788;DHT22;24536;45.488;12.238;2023-12-14T07:52:57;7.50;99.90
38788;DHT22;24536;45.488;12.238;2023-12-14T07:55:23;7.50;99.90
38788;DHT22;24536;45.488;12.238;2023-12-14T07:57:48;7.50;99.90
38788;DHT22;24536;45.488;12.238;2023-12-14T08:00:15;7.50;99.90
38788;DHT22;24536;45.488;12.238;2023-12-14T08:02:41;7.50;99.90
38788;DHT22;24536;45.488;12.238;2023-12-14T08:05:07;7.50;99.90
38788;DHT22;24536;45.488;12.238;2023-12-14T08:07:32;7.50;99.90
38788;DHT22;24536;45.488;12.238;2023-12-14T08:09:58;7.50;99.90
38788;DHT22;24536;45.488;12.238;2023-12-14T08:12:33;7.60;99.90
38788;DHT22;24536;45.488;12.238;2023-12-14T08:15:05;7.70;99.90
38788;DHT22;24536;45.488;12.238;2023-12-14T08:17:39;7.70;99.90
38788;DHT22;24536;45.488;12.238;2023-12-14T08:20:05;7.80;99.90
38788;DHT22;24536;45.488;12.238;2023-12-14T08:22:34;7.80;99.90
38788;DHT22;24536;45.488;12.238;2023-12-14T08:24:59;7.80;99.90
38788;DHT22;24536;45.488;12.238;2023-12-14T08:27:25;7.80;99.90
38788;DHT22;24536;45.488;12.238;2023-12-14T08:29:51;7.90;99.90
38788;DHT22;24536;45.488;12.238;2023-12-14T08:32:16;7.90;99.90
38788;DHT22;24536;45.488;12.238;2023-12-14T08:34:42;7.90;99.90
38788;DHT22;24536;45.488;12.238;2023-12-14T08:37:07;7.90;99.90
38788;DHT22;24536;45.488;12.238;2023-12-14T08:39:33;7.90;99.90
38788;DHT22;24536;45.488;12.238;2023-12-14T08:41:58;7.90;99.90
38788;DHT22;24536;45.488;12.238;2023-12-14T08:44:24;7.90;99.90
38788;DHT22;24536;45.488;12.238;2023-12-14T08:46:49;7.90;99.90
38788;DHT22;24536;45.488;12.238;2023-12-14T08:49:15;7.90;99.90
38788;DHT22;24536;45.488;12.238;2023-12-14T08:51:41;7.90;99.90
38788;DHT22;24536;45.488;12.238;2023-12-14T08:54:07;8.00;99.90
38788;DHT22;24536;45.488;12.238;2023-12-14T08:56:33;7.90;99.90
38788;DHT22;24536;45.488;12.238;2023-12-14T08:58:58;7.90;99.90
38788;DHT22;24536;45.488;12.238;2023-12-14T09:01:25;8.00;99.90
38788;DHT22;24536;45.488;12.238;2023-12-14T09:03:51;7.90;99.90
38788;DHT22;24536;45.488;12.238;2023-12-14T09:06:17;8.00;99.90
38788;DHT22;24536;45.488;12.238;2023-12-14T09:08:43;8.10;99.90
38788;DHT22;24536;45.488;12.238;2023-12-14T09:11:09;8.10;99.90
38788;DHT22;24536;45.488;12.238;2023-12-14T09:13:34;8.20;99.90
38788;DHT22;24536;45.488;12.238;2023-12-14T09:16:00;8.20;99.90
38788;DHT22;24536;45.488;12.238;2023-12-14T09:18:25;8.30;99.90
38788;DHT22;24536;45.488;12.238;2023-12-14T09:20:51;8.30;99.90
38788;DHT22;24536;45.488;12.238;2023-12-14T09:23:16;8.40;99.90
38788;DHT22;24536;45.488;12.238;2023-12-14T09:25:42;8.50;99.90
38788;DHT22;24536;45.488;12.238;2023-12-14T09:28:07;8.50;99.90
38788;DHT22;24536;45.488;12.238;2023-12-14T09:30:33;8.60;99.90
38788;DHT22;24536;45.488;12.238;2023-12-14T09:32:59;8.70;99.90
38788;DHT22;24536;45.488;12.238;2023-12-14T09:35:24;8.80;99.90
38788;DHT22;24536;45.488;12.238;2023-12-14T09:37:50;8.90;99.90
38788;DHT22;24536;45.488;12.238;2023-12-14T09:40:15;9.00;99.90
38788;DHT22;24536;45.488;12.238;2023-12-14T09:42:42;9.10;99.90
38788;DHT22;24536;45.488;12.238;2023-12-14T09:45:08;9.20;99.90
38788;DHT22;24536;45.488;12.238;2023-12-14T09:47:35;9.40;99.90
38788;DHT22;24536;45.488;12.238;2023-12-14T09:50:00;9.50;99.90
38788;DHT22;24536;45.488;12.238;2023-12-14T09:52:26;9.60;99.90
38788;DHT22;24536;45.488;12.238;2023-12-14T09:54:51;9.80;99.90
38788;DHT22;24536;45.488;12.238;2023-12-14T09:57:20;9.90;99.90
38788;DHT22;24536;45.488;12.238;2023-12-14T09:59:55;10.00;99.90
38788;DHT22;24536;45.488;12.238;2023-12-14T10:02:24;10.20;99.90
38788;DHT22;24536;45.488;12.238;2023-12-14T10:04:50;10.20;99.90
38788;DHT22;24536;45.488;12.238;2023-12-14T10:07:15;10.40;99.90
38788;DHT22;24536;45.488;12.238;2023-12-14T10:09:42;10.50;99.90
38788;DHT22;24536;45.488;12.238;2023-12-14T10:12:08;10.60;99.90
38788;DHT22;24536;45.488;12.238;2023-12-14T10:14:34;10.70;99.90
38788;DHT22;24536;45.488;12.238;2023-12-14T10:17:17;10.80;99.90
38788;DHT22;24536;45.488;12.238;2023-12-14T10:19:43;11.00;99.90
38788;DHT22;24536;45.488;12.238;2023-12-14T10:22:09;11.10;99.90
38788;DHT22;24536;45.488;12.238;2023-12-14T10:24:35;11.20;99.90
38788;DHT22;24536;45.488;12.238;2023-12-14T10:27:04;11.20;99.90
38788;DHT22;24536;45.488;12.238;2023-12-14T10:29:32;11.30;99.70
38788;DHT22;24536;45.488;12.238;2023-12-14T10:31:57;11.40;99.90
38788;DHT22;24536;45.488;12.238;2023-12-14T10:34:24;11.60;99.90
38788;DHT22;24536;45.488;12.238;2023-12-14T10:36:50;11.70;99.60
38788;DHT22;24536;45.488;12.238;2023-12-14T10:39:16;11.80;99.70
38788;DHT22;24536;45.488;12.238;2023-12-14T10:41:45;12.00;99.80
38788;DHT22;24536;45.488;12.238;2023-12-14T10:44:12;12.20;99.30
38788;DHT22;24536;45.488;12.238;2023-12-14T10:46:38;12.40;97.70
38788;DHT22;24536;45.488;12.238;2023-12-14T10:49:04;12.40;97.60
38788;DHT22;24536;45.488;12.238;2023-12-14T10:51:31;12.50;97.90
38788;DHT22;24536;45.488;12.238;2023-12-14T10:53:57;12.50;98.10
38788;DHT22;24536;45.488;12.238;2023-12-14T10:56:23;12.50;97.40
38788;DHT22;24536;45.488;12.238;2023-12-14T10:58:52;12.50;97.70
38788;DHT22;24536;45.488;12.238;2023-12-14T11:01:19;12.60;97.50
38788;DHT22;24536;45.488;12.238;2023-12-14T11:03:45;12.70;97.20
38788;DHT22;24536;45.488;12.238;2023-12-14T11:08:47;12.80;96.70
38788;DHT22;24536;45.488;12.238;2023-12-14T11:11:13;13.00;96.70
38788;DHT22;24536;45.488;12.238;2023-12-14T11:13:46;13.20;96.90
38788;DHT22;24536;45.488;12.238;2023-12-14T11:16:12;13.30;96.70
38788;DHT22;24536;45.488;12.238;2023-12-14T11:18:40;13.50;96.80
38788;DHT22;24536;45.488;12.238;2023-12-14T11:21:06;13.70;96.40
38788;DHT22;24536;45.488;12.238;2023-12-14T11:23:32;13.90;96.30
38788;DHT22;24536;45.488;12.238;2023-12-14T11:28:25;14.10;94.90
38788;DHT22;24536;45.488;12.238;2023-12-14T11:30:51;14.20;94.60
38788;DHT22;24536;45.488;12.238;2023-12-14T11:33:17;14.30;93.50
38788;DHT22;24536;45.488;12.238;2023-12-14T11:35:43;14.40;94.70
38788;DHT22;24536;45.488;12.238;2023-12-14T11:38:08;14.80;95.10
38788;DHT22;24536;45.488;12.238;2023-12-14T11:40:44;15.20;94.20
38788;DHT22;24536;45.488;12.238;2023-12-14T11:43:09;15.90;92.40
38788;DHT22;24536;45.488;12.238;2023-12-14T11:45:35;16.30;91.30
38788;DHT22;24536;45.488;12.238;2023-12-14T11:48:02;16.80;90.20
38788;DHT22;24536;45.488;12.238;2023-12-14T11:50:34;17.50;91.10
38788;DHT22;24536;45.488;12.238;2023-12-14T11:53:00;18.50;87.80
38788;DHT22;24536;45.488;12.238;2023-12-14T11:55:26;19.40;84.50
38788;DHT22;24536;45.488;12.238;2023-12-14T11:57:52;20.20;81.70
38788;DHT22;24536;45.488;12.238;2023-12-14T12:00:18;20.80;78.70
38788;DHT22;24536;45.488;12.238;2023-12-14T12:02:48;21.30;75.70
38788;DHT22;24536;45.488;12.238;2023-12-14T12:05:13;21.70;77.70
38788;DHT22;24536;45.488;12.238;2023-12-14T12:07:44;22.00;72.70
38788;DHT22;24536;45.488;12.238;2023-12-14T12:10:10;22.30;71.30
38788;DHT22;24536;45.488;12.238;2023-12-14T12:12:42;22.50;70.30
38788;DHT22;24536;45.488;12.238;2023-12-14T12:15:08;22.60;72.10
38788;DHT22;24536;45.488;12.238;2023-12-14T12:17:34;22.70;69.10
38788;DHT22;24536;45.488;12.238;2023-12-14T12:20:05;22.70;69.30
38788;DHT22;24536;45.488;12.238;2023-12-14T12:22:31;22.70;70.10
38788;DHT22;24536;45.488;12.238;2023-12-14T12:24:56;22.80;69.70
38788;DHT22;24536;45.488;12.238;2023-12-14T12:27:23;22.70;66.60
38788;DHT22;24536;45.488;12.238;2023-12-14T12:29:49;22.30;66.50
38788;DHT22;24536;45.488;12.238;2023-12-14T12:32:18;21.90;69.30
38788;DHT22;24536;45.488;12.238;2023-12-14T12:34:44;21.70;68.80
38788;DHT22;24536;45.488;12.238;2023-12-14T12:37:09;21.40;70.80
38788;DHT22;24536;45.488;12.238;2023-12-14T12:39:35;21.20;70.20
38788;DHT22;24536;45.488;12.238;2023-12-14T12:42:01;20.90;70.00
38788;DHT22;24536;45.488;12.238;2023-12-14T12:44:26;20.70;72.80
38788;DHT22;24536;45.488;12.238;2023-12-14T12:46:52;20.50;71.10
38788;DHT22;24536;45.488;12.238;2023-12-14T12:49:22;20.40;73.80
38788;DHT22;24536;45.488;12.238;2023-12-14T12:51:47;20.40;74.30
38788;DHT22;24536;45.488;12.238;2023-12-14T12:54:13;20.50;72.30
38788;DHT22;24536;45.488;12.238;2023-12-14T12:56:38;20.60;72.70
38788;DHT22;24536;45.488;12.238;2023-12-14T12:59:05;20.60;72.60
38788;DHT22;24536;45.488;12.238;2023-12-14T13:01:30;20.60;71.50
38788;DHT22;24536;45.488;12.238;2023-12-14T13:03:56;20.50;71.80
38788;DHT22;24536;45.488;12.238;2023-12-14T13:06:25;20.50;71.30
38788;DHT22;24536;45.488;12.238;2023-12-14T13:08:51;20.40;71.90
38788;DHT22;24536;45.488;12.238;2023-12-14T13:11:17;20.30;73.10
38788;DHT22;24536;45.488;12.238;2023-12-14T13:13:42;20.20;73.60
38788;DHT22;24536;45.488;12.238;2023-12-14T13:16:11;20.20;72.40
38788;DHT22;24536;45.488;12.238;2023-12-14T13:18:42;20.20;74.00
38788;DHT22;24536;45.488;12.238;2023-12-14T13:21:08;20.10;74.10
38788;DHT22;24536;45.488;12.238;2023-12-14T13:23:33;19.90;73.20
38788;DHT22;24536;45.488;12.238;2023-12-14T13:25:59;19.60;73.00
38788;DHT22;24536;45.488;12.238;2023-12-14T13:28:25;19.20;74.00
38788;DHT22;24536;45.488;12.238;2023-12-14T13:30:50;18.70;74.80
38788;DHT22;24536;45.488;12.238;2023-12-14T13:33:16;18.20;75.40
38788;DHT22;24536;45.488;12.238;2023-12-14T13:35:41;17.80;76.40
38788;DHT22;24536;45.488;12.238;2023-12-14T13:38:08;17.40;77.60
38788;DHT22;24536;45.488;12.238;2023-12-14T13:40:33;17.10;78.70
38788;DHT22;24536;45.488;12.238;2023-12-14T13:42:59;16.80;79.90
38788;DHT22;24536;45.488;12.238;2023-12-14T13:45:29;16.50;80.40
38788;DHT22;24536;45.488;12.238;2023-12-14T13:47:55;16.30;80.80
38788;DHT22;24536;45.488;12.238;2023-12-14T13:50:21;16.10;81.40
38788;DHT22;24536;45.488;12.238;2023-12-14T13:52:47;15.90;82.30
38788;DHT22;24536;45.488;12.238;2023-12-14T13:55:12;15.80;83.80
38788;DHT22;24536;45.488;12.238;2023-12-14T13:57:38;15.70;84.50
38788;DHT22;24536;45.488;12.238;2023-12-14T14:00:03;15.60;84.60
38788;DHT22;24536;45.488;12.238;2023-12-14T14:02:29;15.50;84.90
38788;DHT22;24536;45.488;12.238;2023-12-14T14:04:54;15.40;85.20
38788;DHT22;24536;45.488;12.238;2023-12-14T14:07:20;15.20;85.40
38788;DHT22;24536;45.488;12.238;2023-12-14T14:09:47;15.10;85.90
38788;DHT22;24536;45.488;12.238;2023-12-14T14:12:13;15.00;86.50
38788;DHT22;24536;45.488;12.238;2023-12-14T14:14:39;15.00;87.00
38788;DHT22;24536;45.488;12.238;2023-12-14T14:17:04;14.90;87.40
38788;DHT22;24536;45.488;12.238;2023-12-14T14:19:31;14.80;87.60
38788;DHT22;24536;45.488;12.238;2023-12-14T14:21:57;14.80;87.90
38788;DHT22;24536;45.488;12.238;2023-12-14T14:24:22;14.70;88.30
38788;DHT22;24536;45.488;12.238;2023-12-14T14:26:48;14.70;88.90
38788;DHT22;24536;45.488;12.238;2023-12-14T14:29:13;14.60;89.40
38788;DHT22;24536;45.488;12.238;2023-12-14T14:31:39;14.60;89.60
38788;DHT22;24536;45.488;12.238;2023-12-14T14:34:04;14.40;89.70
38788;DHT22;24536;45.488;12.238;2023-12-14T14:36:30;14.40;90.10
38788;DHT22;24536;45.488;12.238;2023-12-14T14:38:56;14.20;90.30
38788;DHT22;24536;45.488;12.238;2023-12-14T14:41:22;14.20;90.50
38788;DHT22;24536;45.488;12.238;2023-12-14T14:43:48;14.10;90.90
38788;DHT22;24536;45.488;12.238;2023-12-14T14:46:13;14.00;91.20
38788;DHT22;24536;45.488;12.238;2023-12-14T14:48:39;13.90;91.30
38788;DHT22;24536;45.488;12.238;2023-12-14T14:51:04;13.90;91.60
38788;DHT22;24536;45.488;12.238;2023-12-14T14:53:30;13.80;91.80
38788;DHT22;24536;45.488;12.238;2023-12-14T14:55:56;13.80;92.10
38788;DHT22;24536;45.488;12.238;2023-12-14T14:58:21;13.70;92.20
38788;DHT22;24536;45.488;12.238;2023-12-14T15:00:47;13.70;92.60
38788;DHT22;24536;45.488;12.238;2023-12-14T15:03:13;13.60;92.70
38788;DHT22;24536;45.488;12.238;2023-12-14T15:05:39;13.60;92.90
38788;DHT22;24536;45.488;12.238;2023-12-14T15:08:04;13.60;93.00
38788;DHT22;24536;45.488;12.238;2023-12-14T15:10:32;13.60;93.20
38788;DHT22;24536;45.488;12.238;2023-12-14T15:12:57;13.50;93.40
38788;DHT22;24536;45.488;12.238;2023-12-14T15:15:23;13.50;93.50
38788;DHT22;24536;45.488;12.238;2023-12-14T15:17:48;13.40;93.70
38788;DHT22;24536;45.488;12.238;2023-12-14T15:20:14;13.40;93.80
38788;DHT22;24536;45.488;12.238;2023-12-14T15:22:39;13.30;94.00